createdAt,value
2019-03-17T00:00:06.940Z,1007.44
2019-03-17T00:01:06.930Z,1007.39
2019-03-17T00:02:06.903Z,1007.34
2019-03-17T00:03:06.894Z,1007.39
2019-03-17T00:04:06.942Z,1007.39
2019-03-17T00:05:06.930Z,1007.37
2019-03-17T00:06:08.069Z,1007.28
2019-03-17T00:07:06.938Z,1007.34
2019-03-17T00:08:06.904Z,1007.28
2019-03-17T00:09:06.969Z,1007.27
2019-03-17T00:10:06.895Z,1007.31
2019-03-17T00:11:07.001Z,1007.29
2019-03-17T00:12:06.920Z,1007.3
2019-03-17T00:13:06.909Z,1007.23
2019-03-17T00:14:06.887Z,1007.25
2019-03-17T00:15:06.950Z,1007.27
2019-03-17T00:16:06.928Z,1007.19
2019-03-17T00:17:06.919Z,1007.2
2019-03-17T00:18:06.883Z,1007.24
2019-03-17T00:19:06.905Z,1007.18
2019-03-17T00:20:06.887Z,1007.16
2019-03-17T00:21:06.877Z,1007.18
2019-03-17T00:22:06.864Z,1007.17
2019-03-17T00:23:06.899Z,1007.21
2019-03-17T00:24:06.932Z,1007.26
2019-03-17T00:25:10.301Z,1007.18
2019-03-17T00:26:06.868Z,1007.16
2019-03-17T00:27:06.893Z,1007.18
2019-03-17T00:28:06.872Z,1007.15
2019-03-17T00:29:06.889Z,1007.17
2019-03-17T00:30:06.964Z,1007.13
2019-03-17T00:31:06.868Z,1007.12
2019-03-17T00:32:06.874Z,1007.11
2019-03-17T00:33:06.906Z,1007.09
2019-03-17T00:34:07.169Z,1007
2019-03-17T00:35:06.855Z,1007.05
2019-03-17T00:36:06.883Z,1007
2019-03-17T00:37:06.870Z,1007.01
2019-03-17T00:38:06.855Z,1007.01
2019-03-17T00:39:06.904Z,1007.01
2019-03-17T00:40:06.884Z,1007.03
2019-03-17T00:41:06.858Z,1006.96
2019-03-17T00:42:06.985Z,1007.07
2019-03-17T00:43:06.843Z,1007
2019-03-17T00:44:06.863Z,1007.09
2019-03-17T00:45:06.857Z,1007.02
2019-03-17T00:46:06.867Z,1006.97
2019-03-17T00:47:06.989Z,1007.05
2019-03-17T00:48:06.910Z,1006.92
2019-03-17T00:49:06.868Z,1006.92
2019-03-17T00:50:06.864Z,1006.95
2019-03-17T00:51:06.847Z,1007.04
2019-03-17T00:52:06.841Z,1006.97
2019-03-17T00:53:06.823Z,1006.93
2019-03-17T00:54:06.831Z,1006.82
2019-03-17T00:55:06.860Z,1006.78
2019-03-17T00:56:06.920Z,1006.75
2019-03-17T00:57:06.823Z,1006.77
2019-03-17T00:58:06.818Z,1006.81
2019-03-17T00:59:06.829Z,1006.72
2019-03-17T01:00:06.827Z,1006.68
2019-03-17T01:01:06.835Z,1006.7
2019-03-17T01:02:06.818Z,1006.66
2019-03-17T01:03:06.808Z,1006.63
2019-03-17T01:04:06.810Z,1006.69
2019-03-17T01:05:06.826Z,1006.71
2019-03-17T01:06:06.812Z,1006.74
2019-03-17T01:07:07.177Z,1006.63
2019-03-17T01:08:06.805Z,1006.63
2019-03-17T01:09:06.817Z,1006.63
2019-03-17T01:10:06.806Z,1006.59
2019-03-17T01:11:06.806Z,1006.57
2019-03-17T01:12:07.721Z,1006.6
2019-03-17T01:13:07.016Z,1006.58
2019-03-17T01:14:06.847Z,1006.54
2019-03-17T01:15:06.827Z,1006.58
2019-03-17T01:16:06.807Z,1006.57
2019-03-17T01:17:06.781Z,1006.6
2019-03-17T01:18:06.789Z,1006.52
2019-03-17T01:19:06.796Z,1006.58
2019-03-17T01:20:06.802Z,1006.58
2019-03-17T01:21:06.792Z,1006.56
2019-03-17T01:22:06.783Z,1006.55
2019-03-17T01:23:06.783Z,1006.52
2019-03-17T01:24:06.782Z,1006.5
2019-03-17T01:25:06.782Z,1006.52
2019-03-17T01:26:06.775Z,1006.51
2019-03-17T01:27:06.781Z,1006.46
2019-03-17T01:28:06.778Z,1006.48
2019-03-17T01:29:06.780Z,1006.4
2019-03-17T01:30:06.781Z,1006.39
2019-03-17T01:31:06.803Z,1006.35
2019-03-17T01:32:06.809Z,1006.33
2019-03-17T01:33:06.771Z,1006.34
2019-03-17T01:34:06.807Z,1006.3
2019-03-17T01:35:10.096Z,1006.25
2019-03-17T01:36:06.766Z,1006.27
2019-03-17T01:37:06.768Z,1006.19
2019-03-17T01:38:06.774Z,1006.25
2019-03-17T01:39:06.820Z,1006.26
2019-03-17T01:40:06.792Z,1006.22
2019-03-17T01:41:06.752Z,1006.21
2019-03-17T01:42:06.762Z,1006.23
2019-03-17T01:43:06.749Z,1006.22
2019-03-17T01:44:06.749Z,1006.23
2019-03-17T01:45:06.777Z,1006.23
2019-03-17T01:46:06.750Z,1006.17
2019-03-17T01:47:06.750Z,1006.2
2019-03-17T01:48:06.756Z,1006.12
2019-03-17T01:49:06.750Z,1006.18
2019-03-17T01:50:06.738Z,1006.15
2019-03-17T01:51:06.743Z,1006.17
2019-03-17T01:52:06.760Z,1006.16
2019-03-17T01:53:06.739Z,1006.14
2019-03-17T01:54:06.771Z,1006.17
2019-03-17T01:55:06.809Z,1006.13
2019-03-17T01:56:06.750Z,1006.15
2019-03-17T01:57:06.718Z,1006.17
2019-03-17T01:58:06.727Z,1006.14
2019-03-17T01:59:06.742Z,1006.18
2019-03-17T02:00:06.754Z,1006.15
2019-03-17T02:01:06.760Z,1006.16
2019-03-17T02:02:06.736Z,1006.17
2019-03-17T02:03:06.726Z,1006.15
2019-03-17T02:04:07.761Z,1006.09
2019-03-17T02:05:06.740Z,1006.1
2019-03-17T02:06:06.790Z,1006.08
2019-03-17T02:07:06.754Z,1006.08
2019-03-17T02:08:06.739Z,1006.13
2019-03-17T02:09:06.723Z,1006.05
2019-03-17T02:10:06.720Z,1006.07
2019-03-17T02:11:06.730Z,1006.13
2019-03-17T02:12:06.780Z,1006.1
2019-03-17T02:13:06.714Z,1006.03
2019-03-17T02:14:06.732Z,1005.99
2019-03-17T02:15:06.711Z,1005.96
2019-03-17T02:16:06.737Z,1005.91
2019-03-17T02:17:06.732Z,1005.93
2019-03-17T02:18:06.717Z,1005.89
2019-03-17T02:19:06.700Z,1005.9
2019-03-17T02:20:06.752Z,1005.88
2019-03-17T02:21:06.699Z,1005.82
2019-03-17T02:22:06.743Z,1005.78
2019-03-17T02:23:06.756Z,1005.76
2019-03-17T02:24:06.698Z,1005.76
2019-03-17T02:25:06.713Z,1005.76
2019-03-17T02:26:06.714Z,1005.69
2019-03-17T02:27:06.719Z,1005.67
2019-03-17T02:28:06.714Z,1005.67
2019-03-17T02:29:06.715Z,1005.67
2019-03-17T02:30:06.697Z,1005.73
2019-03-17T02:31:06.696Z,1005.67
2019-03-17T02:32:06.696Z,1005.68
2019-03-17T02:33:06.730Z,1005.76
2019-03-17T02:34:06.693Z,1005.74
2019-03-17T02:35:06.685Z,1005.73
2019-03-17T02:36:06.689Z,1005.71
2019-03-17T02:37:06.689Z,1005.76
2019-03-17T02:38:06.839Z,1005.74
2019-03-17T02:39:06.782Z,1005.75
2019-03-17T02:40:06.730Z,1005.85
2019-03-17T02:41:06.706Z,1005.79
2019-03-17T02:42:06.718Z,1005.77
2019-03-17T02:43:06.692Z,1005.69
2019-03-17T02:44:06.691Z,1005.72
2019-03-17T02:45:06.671Z,1005.72
2019-03-17T02:46:06.678Z,1005.71
2019-03-17T02:47:06.667Z,1005.67
2019-03-17T02:48:06.692Z,1005.63
2019-03-17T02:49:06.673Z,1005.62
2019-03-17T02:50:06.694Z,1005.55
2019-03-17T02:51:06.661Z,1005.61
2019-03-17T02:52:06.652Z,1005.57
2019-03-17T02:53:06.676Z,1005.55
2019-03-17T02:54:06.719Z,1005.56
2019-03-17T02:55:06.666Z,1005.56
2019-03-17T02:56:06.672Z,1005.55
2019-03-17T02:57:06.690Z,1005.62
2019-03-17T02:58:06.654Z,1005.59
2019-03-17T02:59:06.645Z,1005.59
2019-03-17T03:00:06.684Z,1005.51
2019-03-17T03:01:06.669Z,1005.47
2019-03-17T03:02:06.660Z,1005.48
2019-03-17T03:03:06.668Z,1005.43
2019-03-17T03:04:06.651Z,1005.49
2019-03-17T03:05:06.660Z,1005.52
2019-03-17T03:06:06.683Z,1005.49
2019-03-17T03:07:06.678Z,1005.51
2019-03-17T03:08:06.664Z,1005.51
2019-03-17T03:09:06.647Z,1005.47
2019-03-17T03:10:06.637Z,1005.53
2019-03-17T03:11:06.649Z,1005.46
2019-03-17T03:12:06.659Z,1005.45
2019-03-17T03:13:06.668Z,1005.5
2019-03-17T03:14:06.655Z,1005.47
2019-03-17T03:15:06.623Z,1005.5
2019-03-17T03:16:06.648Z,1005.5
2019-03-17T03:17:06.664Z,1005.43
2019-03-17T03:18:06.635Z,1005.49
2019-03-17T03:19:06.625Z,1005.48
2019-03-17T03:20:06.635Z,1005.39
2019-03-17T03:21:06.709Z,1005.42
2019-03-17T03:22:06.633Z,1005.41
2019-03-17T03:23:06.610Z,1005.43
2019-03-17T03:24:06.619Z,1005.43
2019-03-17T03:25:06.620Z,1005.44
2019-03-17T03:26:06.607Z,1005.43
2019-03-17T03:27:06.640Z,1005.43
2019-03-17T03:28:06.639Z,1005.41
2019-03-17T03:29:06.622Z,1005.4
2019-03-17T03:30:06.624Z,1005.36
2019-03-17T03:31:06.613Z,1005.38
2019-03-17T03:32:06.646Z,1005.32
2019-03-17T03:33:06.642Z,1005.34
2019-03-17T03:34:06.610Z,1005.31
2019-03-17T03:35:06.640Z,1005.29
2019-03-17T03:36:12.108Z,1005.28
2019-03-17T03:37:06.619Z,1005.24
2019-03-17T03:38:06.599Z,1005.19
2019-03-17T03:39:06.717Z,1005.29
2019-03-17T03:40:06.655Z,1005.26
2019-03-17T03:41:06.603Z,1005.25
2019-03-17T03:42:06.604Z,1005.28
2019-03-17T03:43:06.753Z,1005.24
2019-03-17T03:44:06.613Z,1005.23
2019-03-17T03:45:06.624Z,1005.21
2019-03-17T03:46:06.611Z,1005.18
2019-03-17T03:47:06.606Z,1005.13
2019-03-17T03:48:06.882Z,1005.15
2019-03-17T03:49:06.615Z,1005.11
2019-03-17T03:50:06.589Z,1005.1
2019-03-17T03:51:06.590Z,1005.08
2019-03-17T03:52:06.648Z,1005.08
2019-03-17T03:53:06.872Z,1005.06
2019-03-17T03:54:06.601Z,1005.02
2019-03-17T03:55:06.707Z,1005.05
2019-03-17T03:56:06.590Z,1005.04
2019-03-17T03:57:06.587Z,1005.06
2019-03-17T03:58:06.609Z,1005.06
2019-03-17T03:59:06.596Z,1005.03
2019-03-17T04:00:06.570Z,1005.06
2019-03-17T04:01:06.575Z,1005.07
2019-03-17T04:02:06.552Z,1005.05
2019-03-17T04:03:06.580Z,1005.02
2019-03-17T04:04:06.665Z,1005.03
2019-03-17T04:05:06.943Z,1004.99
2019-03-17T04:06:06.588Z,1005.03
2019-03-17T04:07:06.564Z,1005.03
2019-03-17T04:08:06.581Z,1005.02
2019-03-17T04:09:06.554Z,1005.01
2019-03-17T04:10:06.590Z,1005.02
2019-03-17T04:11:06.546Z,1005.03
2019-03-17T04:12:06.580Z,1005.03
2019-03-17T04:13:06.605Z,1005.03
2019-03-17T04:14:06.572Z,1005.01
2019-03-17T04:15:06.534Z,1005.03
2019-03-17T04:16:06.550Z,1005
2019-03-17T04:17:06.577Z,1004.97
2019-03-17T04:18:06.541Z,1004.96
2019-03-17T04:19:06.585Z,1005.01
2019-03-17T04:20:06.541Z,1004.93
2019-03-17T04:21:06.588Z,1004.93
2019-03-17T04:22:06.651Z,1004.97
2019-03-17T04:23:06.548Z,1004.92
2019-03-17T04:24:06.554Z,1004.94
2019-03-17T04:25:06.524Z,1004.9
2019-03-17T04:26:06.587Z,1004.9
2019-03-17T04:27:06.554Z,1004.96
2019-03-17T04:28:06.531Z,1004.93
2019-03-17T04:29:06.538Z,1004.89
2019-03-17T04:30:06.534Z,1004.91
2019-03-17T04:31:06.551Z,1004.93
2019-03-17T04:32:06.517Z,1004.94
2019-03-17T04:33:06.626Z,1004.93
2019-03-17T04:34:06.611Z,1004.93
2019-03-17T04:35:06.533Z,1004.95
2019-03-17T04:36:06.533Z,1004.96
2019-03-17T04:37:06.512Z,1004.95
2019-03-17T04:38:06.566Z,1004.93
2019-03-17T04:39:06.510Z,1004.97
2019-03-17T04:40:06.551Z,1004.97
2019-03-17T04:41:06.547Z,1004.96
2019-03-17T04:42:06.520Z,1004.96
2019-03-17T04:43:06.564Z,1004.91
2019-03-17T04:44:06.512Z,1004.89
2019-03-17T04:45:06.525Z,1004.87
2019-03-17T04:46:06.506Z,1004.85
2019-03-17T04:47:06.502Z,1004.84
2019-03-17T04:48:06.513Z,1004.8
2019-03-17T04:49:06.508Z,1004.79
2019-03-17T04:50:06.502Z,1004.82
2019-03-17T04:51:06.494Z,1004.81
2019-03-17T04:52:06.486Z,1004.79
2019-03-17T04:53:06.496Z,1004.79
2019-03-17T04:54:06.530Z,1004.76
2019-03-17T04:55:06.568Z,1004.78
2019-03-17T04:56:08.301Z,1004.78
2019-03-17T04:57:06.487Z,1004.78
2019-03-17T04:58:06.505Z,1004.82
2019-03-17T04:59:06.495Z,1004.8
2019-03-17T05:00:06.494Z,1004.79
2019-03-17T05:01:06.477Z,1004.79
2019-03-17T05:02:06.466Z,1004.78
2019-03-17T05:03:06.504Z,1004.81
2019-03-17T05:04:06.475Z,1004.75
2019-03-17T05:05:06.483Z,1004.8
2019-03-17T05:06:06.475Z,1004.79
2019-03-17T05:07:06.479Z,1004.82
2019-03-17T05:08:06.472Z,1004.77
2019-03-17T05:09:06.455Z,1004.81
2019-03-17T05:10:06.459Z,1004.61
2019-03-17T05:11:06.467Z,1004.71
2019-03-17T05:12:06.477Z,1004.74
2019-03-17T05:13:06.453Z,1004.75
2019-03-17T05:14:06.479Z,1004.7
2019-03-17T05:15:06.486Z,1004.81
2019-03-17T05:16:06.471Z,1004.71
2019-03-17T05:17:06.595Z,1004.68
2019-03-17T05:18:06.473Z,1004.73
2019-03-17T05:19:06.455Z,1004.63
2019-03-17T05:20:06.446Z,1004.72
2019-03-17T05:21:06.445Z,1004.72
2019-03-17T05:22:06.460Z,1004.68
2019-03-17T05:23:06.531Z,1004.72
2019-03-17T05:24:06.446Z,1004.72
2019-03-17T05:25:06.460Z,1004.71
2019-03-17T05:26:06.457Z,1004.72
2019-03-17T05:27:06.446Z,1004.7
2019-03-17T05:28:06.441Z,1004.7
2019-03-17T05:29:06.444Z,1004.79
2019-03-17T05:30:06.427Z,1004.76
2019-03-17T05:31:06.434Z,1004.68
2019-03-17T05:32:06.451Z,1004.75
2019-03-17T05:33:06.519Z,1004.78
2019-03-17T05:34:06.425Z,1004.81
2019-03-17T05:35:06.440Z,1004.84
2019-03-17T05:36:06.425Z,1004.81
2019-03-17T05:37:07.220Z,1004.87
2019-03-17T05:38:06.453Z,1004.82
2019-03-17T05:39:06.493Z,1004.81
2019-03-17T05:40:06.448Z,1004.82
2019-03-17T05:41:06.429Z,1004.81
2019-03-17T05:42:06.424Z,1004.76
2019-03-17T05:43:06.416Z,1004.8
2019-03-17T05:44:06.423Z,1004.8
2019-03-17T05:45:06.424Z,1004.78
2019-03-17T05:46:06.430Z,1004.84
2019-03-17T05:47:06.461Z,1004.85
2019-03-17T05:48:06.420Z,1004.84
2019-03-17T05:49:06.419Z,1004.77
2019-03-17T05:50:06.409Z,1004.78
2019-03-17T05:51:06.497Z,1004.87
2019-03-17T05:52:06.420Z,1004.85
2019-03-17T05:53:06.437Z,1004.83
2019-03-17T05:54:06.403Z,1004.8
2019-03-17T05:55:06.391Z,1004.82
2019-03-17T05:56:06.407Z,1004.71
2019-03-17T05:57:06.414Z,1004.77
2019-03-17T05:58:06.407Z,1004.73
2019-03-17T05:59:06.408Z,1004.77
2019-03-17T06:00:06.471Z,1004.82
2019-03-17T06:01:06.395Z,1004.78
2019-03-17T06:02:06.382Z,1004.8
2019-03-17T06:03:06.389Z,1004.81
2019-03-17T06:04:06.399Z,1004.83
2019-03-17T06:05:06.424Z,1004.86
2019-03-17T06:06:06.402Z,1004.83
2019-03-17T06:07:19.158Z,1004.87
2019-03-17T06:08:06.402Z,1004.83
2019-03-17T06:09:06.370Z,1004.86
2019-03-17T06:10:06.427Z,1004.8
2019-03-17T06:11:06.401Z,1004.8
2019-03-17T06:12:06.394Z,1004.79
2019-03-17T06:13:06.384Z,1004.84
2019-03-17T06:14:06.361Z,1004.87
2019-03-17T06:15:06.410Z,1004.83
2019-03-17T06:16:06.373Z,1004.83
2019-03-17T06:17:06.385Z,1004.85
2019-03-17T06:18:06.445Z,1004.85
2019-03-17T06:19:06.361Z,1004.83
2019-03-17T06:20:06.352Z,1004.85
2019-03-17T06:21:06.661Z,1004.91
2019-03-17T06:22:06.565Z,1004.83
2019-03-17T06:23:06.373Z,1004.86
2019-03-17T06:24:06.375Z,1004.86
2019-03-17T06:25:06.386Z,1004.83
2019-03-17T06:26:06.345Z,1004.86
2019-03-17T06:27:06.408Z,1004.86
2019-03-17T06:28:06.362Z,1004.91
2019-03-17T06:29:06.365Z,1004.89
2019-03-17T06:30:06.379Z,1004.91
2019-03-17T06:31:06.338Z,1004.9
2019-03-17T06:32:06.331Z,1004.89
2019-03-17T06:33:06.351Z,1004.89
2019-03-17T06:34:06.337Z,1004.96
2019-03-17T06:35:06.398Z,1004.95
2019-03-17T06:36:06.354Z,1004.94
2019-03-17T06:37:06.379Z,1004.93
2019-03-17T06:38:06.336Z,1004.92
2019-03-17T06:39:06.334Z,1004.9
2019-03-17T06:40:06.341Z,1004.87
2019-03-17T06:41:06.353Z,1004.91
2019-03-17T06:42:06.355Z,1004.89
2019-03-17T06:43:06.518Z,1004.89
2019-03-17T06:44:06.511Z,1004.91
2019-03-17T06:45:06.379Z,1004.89
2019-03-17T06:46:06.345Z,1004.9
2019-03-17T06:47:06.376Z,1004.83
2019-03-17T06:48:06.327Z,1004.8
2019-03-17T06:49:06.315Z,1004.86
2019-03-17T06:50:06.343Z,1004.95
2019-03-17T06:51:06.333Z,1004.93
2019-03-17T06:52:06.331Z,1004.9
2019-03-17T06:53:06.342Z,1004.88
2019-03-17T06:54:06.616Z,1004.89
2019-03-17T06:55:06.310Z,1005
2019-03-17T06:56:06.331Z,1005.02
2019-03-17T06:57:06.308Z,1004.93
2019-03-17T06:58:06.316Z,1004.92
2019-03-17T06:59:06.341Z,1005.03
2019-03-17T07:00:06.384Z,1005.02
2019-03-17T07:01:06.355Z,1005
2019-03-17T07:02:06.350Z,1005.02
2019-03-17T07:03:06.354Z,1004.95
2019-03-17T07:04:06.333Z,1004.91
2019-03-17T07:05:06.441Z,1005.02
2019-03-17T07:06:06.304Z,1004.98
2019-03-17T07:07:06.284Z,1005.05
2019-03-17T07:08:06.297Z,1005.09
2019-03-17T07:09:06.297Z,1005.06
2019-03-17T07:10:06.298Z,1005.08
2019-03-17T07:11:06.315Z,1005.06
2019-03-17T07:12:06.287Z,1005.07
2019-03-17T07:13:06.292Z,1005.1
2019-03-17T07:14:06.281Z,1005.04
2019-03-17T07:15:06.356Z,1005.12
2019-03-17T07:16:06.412Z,1005.19
2019-03-17T07:17:06.390Z,1005.15
2019-03-17T07:18:06.285Z,1005.16
2019-03-17T07:19:06.322Z,1005.17
2019-03-17T07:20:06.301Z,1005.11
2019-03-17T07:21:06.289Z,1005.21
2019-03-17T07:22:06.284Z,1005.16
2019-03-17T07:23:06.286Z,1005.18
2019-03-17T07:24:06.285Z,1005.15
2019-03-17T07:25:06.391Z,1005.23
2019-03-17T07:26:06.382Z,1005.16
2019-03-17T07:27:06.431Z,1005.19
2019-03-17T07:28:06.269Z,1005.21
2019-03-17T07:29:06.269Z,1005.14
2019-03-17T07:30:06.275Z,1005.23
2019-03-17T07:31:06.307Z,1005.19
2019-03-17T07:32:06.267Z,1005.15
2019-03-17T07:33:06.276Z,1005.16
2019-03-17T07:34:06.299Z,1005.14
2019-03-17T07:35:06.271Z,1005.25
2019-03-17T07:36:06.289Z,1005.19
2019-03-17T07:37:06.315Z,1005.18
2019-03-17T07:38:06.266Z,1005.16
2019-03-17T07:39:12.334Z,1005.21
2019-03-17T07:40:06.274Z,1005.23
2019-03-17T07:41:06.345Z,1005.24
2019-03-17T07:42:06.284Z,1005.27
2019-03-17T07:43:06.264Z,1005.21
2019-03-17T07:44:06.245Z,1005.15
2019-03-17T07:45:06.250Z,1005.2
2019-03-17T07:46:06.239Z,1005.18
2019-03-17T07:47:06.339Z,1005.14
2019-03-17T07:48:06.376Z,1005.14
2019-03-17T07:49:06.306Z,1005.08
2019-03-17T07:50:06.338Z,1005.13
2019-03-17T07:51:06.241Z,1005.1
2019-03-17T07:52:06.246Z,1005.14
2019-03-17T07:53:06.241Z,1005.07
2019-03-17T07:54:06.254Z,1005.07
2019-03-17T07:55:06.273Z,1005.1
2019-03-17T07:56:06.268Z,1005.12
2019-03-17T07:57:06.386Z,1005.13
2019-03-17T07:58:06.624Z,1004.99
2019-03-17T07:59:06.335Z,1005.06
2019-03-17T08:00:06.241Z,1005.13
2019-03-17T08:01:06.211Z,1005.16
2019-03-17T08:02:06.233Z,1005.08
2019-03-17T08:03:06.277Z,1005.08
2019-03-17T08:04:06.227Z,1004.98
2019-03-17T08:05:06.244Z,1005.05
2019-03-17T08:06:06.251Z,1005.06
2019-03-17T08:07:06.209Z,1005.1
2019-03-17T08:08:10.139Z,1005.01
2019-03-17T08:09:06.219Z,1005.05
2019-03-17T08:10:06.232Z,1005.04
2019-03-17T08:11:06.242Z,1004.92
2019-03-17T08:12:06.214Z,1004.97
2019-03-17T08:13:06.259Z,1004.94
2019-03-17T08:14:06.203Z,1005.05
2019-03-17T08:15:06.205Z,1004.99
2019-03-17T08:16:06.203Z,1004.96
2019-03-17T08:17:06.202Z,1004.94
2019-03-17T08:18:06.218Z,1004.93
2019-03-17T08:19:06.344Z,1004.95
2019-03-17T08:20:06.199Z,1004.88
2019-03-17T08:21:06.210Z,1004.96
2019-03-17T08:22:06.185Z,1004.85
2019-03-17T08:23:06.197Z,1004.88
2019-03-17T08:24:06.196Z,1004.88
2019-03-17T08:25:06.204Z,1004.86
2019-03-17T08:26:06.178Z,1004.88
2019-03-17T08:27:06.201Z,1004.85
2019-03-17T08:28:06.188Z,1004.88
2019-03-17T08:29:06.180Z,1004.81
2019-03-17T08:30:06.201Z,1004.81
2019-03-17T08:31:06.204Z,1004.75
2019-03-17T08:32:06.177Z,1004.77
2019-03-17T08:33:06.174Z,1004.77
2019-03-17T08:34:06.162Z,1004.82
2019-03-17T08:35:06.332Z,1004.83
2019-03-17T08:36:06.233Z,1004.89
2019-03-17T08:37:06.181Z,1004.82
2019-03-17T08:38:06.181Z,1004.84
2019-03-17T08:39:06.208Z,1004.92
2019-03-17T08:40:06.501Z,1004.9
2019-03-17T08:41:06.215Z,1004.91
2019-03-17T08:42:06.189Z,1005.01
2019-03-17T08:43:06.177Z,1004.96
2019-03-17T08:44:06.177Z,1004.97
2019-03-17T08:45:06.203Z,1004.96
2019-03-17T08:46:06.187Z,1004.94
2019-03-17T08:47:06.185Z,1004.94
2019-03-17T08:48:06.151Z,1004.93
2019-03-17T08:49:06.187Z,1004.97
2019-03-17T08:50:06.218Z,1004.97
2019-03-17T08:51:06.198Z,1004.99
2019-03-17T08:52:06.167Z,1004.99
2019-03-17T08:53:06.146Z,1005.03
2019-03-17T08:54:06.156Z,1005.04
2019-03-17T08:55:06.143Z,1004.99
2019-03-17T08:56:06.156Z,1005.1
2019-03-17T08:57:06.146Z,1005.12
2019-03-17T08:58:06.142Z,1005.16
2019-03-17T08:59:06.130Z,1005.11
2019-03-17T09:00:06.142Z,1005.17
2019-03-17T09:01:06.171Z,1005.15
2019-03-17T09:02:06.259Z,1005.17
2019-03-17T09:03:06.135Z,1005.21
2019-03-17T09:04:06.127Z,1005.26
2019-03-17T09:05:06.144Z,1005.23
2019-03-17T09:06:06.134Z,1005.38
2019-03-17T09:07:06.129Z,1005.33
2019-03-17T09:08:06.128Z,1005.34
2019-03-17T09:09:06.138Z,1005.33
2019-03-17T09:10:06.162Z,1005.37
2019-03-17T09:11:06.114Z,1005.27
2019-03-17T09:12:06.116Z,1005.39
2019-03-17T09:13:06.122Z,1005.37
2019-03-17T09:14:06.131Z,1005.43
2019-03-17T09:15:06.127Z,1005.42
2019-03-17T09:16:06.107Z,1005.45
2019-03-17T09:17:14.904Z,1005.41
2019-03-17T09:18:06.142Z,1005.36
2019-03-17T09:19:06.109Z,1005.32
2019-03-17T09:20:06.118Z,1005.29
2019-03-17T09:21:06.125Z,1005.26
2019-03-17T09:22:06.087Z,1005.27
2019-03-17T09:23:06.128Z,1005.3
2019-03-17T09:24:17.669Z,1005.26
2019-03-17T09:25:06.116Z,1005.34
2019-03-17T09:26:06.102Z,1005.28
2019-03-17T09:27:06.084Z,1005.29
2019-03-17T09:28:06.112Z,1005.32
2019-03-17T09:29:06.234Z,1005.28
2019-03-17T09:30:06.161Z,1005.21
2019-03-17T09:31:07.839Z,1005.23
2019-03-17T09:32:06.088Z,1005.22
2019-03-17T09:33:06.133Z,1005.2
2019-03-17T09:34:06.096Z,1005.2
2019-03-17T09:35:06.099Z,1005.19
2019-03-17T09:36:06.081Z,1005.23
2019-03-17T09:37:06.184Z,1005.21
2019-03-17T09:38:06.091Z,1005.3
2019-03-17T09:39:06.123Z,1005.26
2019-03-17T09:40:06.090Z,1005.22
2019-03-17T09:41:06.081Z,1005.35
2019-03-17T09:42:06.078Z,1005.36
2019-03-17T09:43:06.129Z,1005.39
2019-03-17T09:44:06.204Z,1005.37
2019-03-17T09:45:06.631Z,1005.41
2019-03-17T09:46:06.143Z,1005.38
2019-03-17T09:47:06.191Z,1005.42
2019-03-17T09:48:06.155Z,1005.37
2019-03-17T09:49:06.094Z,1005.44
2019-03-17T09:50:06.065Z,1005.39
2019-03-17T09:51:06.123Z,1005.3
2019-03-17T09:52:06.080Z,1005.36
2019-03-17T09:53:06.066Z,1005.41
2019-03-17T09:54:06.202Z,1005.33
2019-03-17T09:55:06.064Z,1005.37
2019-03-17T09:56:06.073Z,1005.37
2019-03-17T09:57:06.191Z,1005.41
2019-03-17T09:58:06.053Z,1005.33
2019-03-17T09:59:06.109Z,1005.28
2019-03-17T10:00:06.057Z,1005.3
2019-03-17T10:01:06.041Z,1005.27
2019-03-17T10:02:06.027Z,1005.34
2019-03-17T10:03:06.049Z,1005.38
2019-03-17T10:04:06.087Z,1005.5
2019-03-17T10:05:06.051Z,1005.36
2019-03-17T10:06:06.119Z,1005.33
2019-03-17T10:07:06.578Z,1005.23
2019-03-17T10:08:06.206Z,1005.37
2019-03-17T10:09:06.059Z,1005.31
2019-03-17T10:10:06.042Z,1005.28
2019-03-17T10:11:06.148Z,1005.35
2019-03-17T10:12:06.035Z,1005.26
2019-03-17T10:13:06.040Z,1005.17
2019-03-17T10:14:06.034Z,1005.08
2019-03-17T10:15:06.054Z,1005.14
2019-03-17T10:16:06.053Z,1005.26
2019-03-17T10:17:06.055Z,1005.19
2019-03-17T10:18:06.071Z,1005.14
2019-03-17T10:19:06.045Z,1005.2
2019-03-17T10:20:06.032Z,1005.22
2019-03-17T10:21:06.027Z,1005.25
2019-03-17T10:22:06.018Z,1005.26
2019-03-17T10:23:06.053Z,1005.22
2019-03-17T10:24:06.050Z,1005.24
2019-03-17T10:25:06.044Z,1005.22
2019-03-17T10:26:06.023Z,1005.22
2019-03-17T10:27:06.106Z,1005.19
2019-03-17T10:28:06.016Z,1005.28
2019-03-17T10:29:06.161Z,1005.17
2019-03-17T10:30:06.053Z,1005.21
2019-03-17T10:31:06.070Z,1005.21
2019-03-17T10:32:06.050Z,1005.24
2019-03-17T10:33:06.047Z,1005.24
2019-03-17T10:34:06.061Z,1005.22
2019-03-17T10:35:06.061Z,1005.15
2019-03-17T10:36:06.015Z,1005.14
2019-03-17T10:37:06.055Z,1005.13
2019-03-17T10:38:06.011Z,1005.19
2019-03-17T10:39:12.893Z,1005.19
2019-03-17T10:40:06.024Z,1005.14
2019-03-17T10:41:06.083Z,1005.1
2019-03-17T10:42:06.091Z,1005.15
2019-03-17T10:43:06.020Z,1005.14
2019-03-17T10:44:06.046Z,1005.06
2019-03-17T10:45:06.007Z,1005.1
2019-03-17T10:46:06.015Z,1005.13
2019-03-17T10:47:06.021Z,1005.08
2019-03-17T10:48:06.012Z,1005.08
2019-03-17T10:49:06.013Z,1005.11
2019-03-17T10:50:06.045Z,1005.12
2019-03-17T10:51:06.220Z,1005.19
2019-03-17T10:52:06.092Z,1005.26
2019-03-17T10:53:06.023Z,1005.22
2019-03-17T10:54:06.008Z,1005.13
2019-03-17T10:55:05.978Z,1005.22
2019-03-17T10:56:06.009Z,1005.17
2019-03-17T10:57:06.046Z,1005.19
2019-03-17T10:58:06.004Z,1005.28
2019-03-17T10:59:05.966Z,1005.13
2019-03-17T11:00:06.031Z,1005.18
2019-03-17T11:01:06.074Z,1005.1
2019-03-17T11:02:06.008Z,1005.11
2019-03-17T11:03:05.986Z,1005.17
2019-03-17T11:04:05.991Z,1005.19
2019-03-17T11:05:06.018Z,1005.2
2019-03-17T11:06:06.156Z,1004.99
2019-03-17T11:07:06.032Z,1005.19
2019-03-17T11:08:05.990Z,1005.15
2019-03-17T11:09:05.988Z,1005.11
2019-03-17T11:10:06.096Z,1005.11
2019-03-17T11:11:05.979Z,1005.14
2019-03-17T11:12:06.024Z,1005.16
2019-03-17T11:13:06.066Z,1005.1
2019-03-17T11:14:05.984Z,1005.05
2019-03-17T11:15:06.051Z,1005.09
2019-03-17T11:16:05.970Z,1005.12
2019-03-17T11:17:06.063Z,1005.13
2019-03-17T11:18:05.997Z,1005.1
2019-03-17T11:19:05.947Z,1005.02
2019-03-17T11:20:06.049Z,1005.07
2019-03-17T11:21:05.980Z,1005.18
2019-03-17T11:22:06.069Z,1005.25
2019-03-17T11:23:05.997Z,1005.11
2019-03-17T11:24:05.990Z,1005.04
2019-03-17T11:25:05.951Z,1004.99
2019-03-17T11:26:05.962Z,1005.04
2019-03-17T11:27:06.271Z,1005.07
2019-03-17T11:28:05.949Z,1004.99
2019-03-17T11:29:06.043Z,1005.17
2019-03-17T11:30:05.963Z,1005.15
2019-03-17T11:31:05.974Z,1005.09
2019-03-17T11:32:06.874Z,1005.09
2019-03-17T11:33:05.967Z,1005.18
2019-03-17T11:34:05.992Z,1005.11
2019-03-17T11:35:05.945Z,1005.08
2019-03-17T11:36:06.394Z,1005.03
2019-03-17T11:37:05.927Z,1005.05
2019-03-17T11:38:05.944Z,1005.17
2019-03-17T11:39:05.925Z,1005.06
2019-03-17T11:40:05.968Z,1005.04
2019-03-17T11:41:05.968Z,1005.03
2019-03-17T11:42:05.925Z,1005.04
2019-03-17T11:43:05.915Z,1005.01
2019-03-17T11:44:05.938Z,1005.12
2019-03-17T11:45:05.936Z,1005.06
2019-03-17T11:46:05.918Z,1005.1
2019-03-17T11:47:05.936Z,1005.18
2019-03-17T11:48:05.914Z,1005.12
2019-03-17T11:49:05.907Z,1005.3
2019-03-17T11:50:05.908Z,1005.2
2019-03-17T11:51:05.941Z,1005.26
2019-03-17T11:52:05.927Z,1005.28
2019-03-17T11:53:05.943Z,1005.29
2019-03-17T11:54:05.942Z,1005.32
2019-03-17T11:55:05.897Z,1005.45
2019-03-17T11:56:06.026Z,1005.48
2019-03-17T11:57:05.914Z,1005.4
2019-03-17T11:58:05.911Z,1005.35
2019-03-17T11:59:05.927Z,1005.46
2019-03-17T12:00:05.911Z,1005.44
2019-03-17T12:01:05.976Z,1005.49
2019-03-17T12:02:05.920Z,1005.5
2019-03-17T12:03:05.887Z,1005.56
2019-03-17T12:04:05.896Z,1005.55
2019-03-17T12:05:05.890Z,1005.55
2019-03-17T12:06:05.954Z,1005.47
2019-03-17T12:07:05.912Z,1005.48
2019-03-17T12:08:06.253Z,1005.56